»·PEaware :: SKW3131 KMMH-KLAX

SKW3131 :: KMMH-KLAX

FLIGHT INFORMATION

Flight Status: Arrived
Operator:
SkyWest Airlines
More flights by this operator :: More flights under this callsign
Pilot: Jack B. (5846)
Aircraft: CANADAIR CL-600 CRJ-200
(CRJ2)
More flights by this aircraft type
Origin: KMMH Mammoth Yosemite
United States
Destination: KLAX Los Angeles Intl
United States
More flights between these airports :: More routes between these airports
Route: +CROLI1 EHF MUPTT IRNMN2
File this flight plan on PilotEdge
Remarks:
Altitude:
(Current/Filed)
280ft
Speed:
(Current/Filed)
320kts
Departed: 25-May-19 06:25 PM
Arrived: 25-May-19 07:18 PM
Distance/Time
Traveled:
222nm/0:52
Distance/Time
To Go:
Arrived

Flight Plot

Page will automatically refresh every two minutes.

Flight plan parsing failed; only flown route is shown


Map Options




Map Legend


Flown Route
Filed Route
Departure Airport
Arrival Airport
Navaid (VOR, NDB)
Fix

Horizontal Profiles

Position Reports

Time Latitude Longitude Heading Altitude Ground
Speed
25-May-19 18:10 37.626634 -118.841471 54 7114ft 0kts
25-May-19 18:11 37.626634 -118.841471 54 7114ft 0kts
25-May-19 18:12 37.626634 -118.841471 54 7114ft 0kts
25-May-19 18:13 37.626634 -118.841471 54 7114ft 0kts
25-May-19 18:14 37.626634 -118.841471 54 7114ft 0kts
25-May-19 18:15 37.626634 -118.841471 54 7114ft 0kts
25-May-19 18:16 37.626634 -118.841471 54 7114ft 0kts
25-May-19 18:17 37.626634 -118.841471 54 7114ft 0kts
25-May-19 18:18 37.626634 -118.841471 54 7114ft 0kts
25-May-19 18:19 37.626634 -118.841471 54 7114ft 0kts
25-May-19 18:20 37.626634 -118.841471 54 7114ft 0kts
25-May-19 18:21 37.626519 -118.841363 230 7114ft 3kts
25-May-19 18:22 37.624203 -118.835948 109 7100ft 28kts
25-May-19 18:23 37.621787 -118.827201 127 7082ft 9kts
25-May-19 18:24 37.624759 -118.841340 288 7115ft 128kts
25-May-19 18:25 37.637413 -118.890991 290 8488ft 160kts
25-May-19 18:26 37.667155 -118.875600 82 9773ft 185kts
25-May-19 18:27 37.671617 -118.806532 83 10613ft 222kts
25-May-19 18:28 37.677495 -118.718462 83 11827ft 272kts
25-May-19 18:29 37.654306 -118.628863 126 13515ft 289kts
25-May-19 18:30 37.589840 -118.584277 204 15177ft 282kts
25-May-19 18:31 37.528671 -118.643910 244 16851ft 291kts
25-May-19 18:32 37.524461 -118.747463 266 18469ft 299kts
25-May-19 18:33 37.512234 -118.845178 220 20058ft 276kts
25-May-19 18:34 37.442314 -118.872668 191 21640ft 263kts
25-May-19 18:35 37.370291 -118.883054 189 22779ft 264kts
25-May-19 18:36 37.296562 -118.891845 190 23687ft 270kts
25-May-19 18:37 37.221362 -118.900575 190 24494ft 275kts
25-May-19 18:38 37.144453 -118.909471 191 25202ft 281kts
25-May-19 18:39 37.065483 -118.918591 192 25827ft 289kts
25-May-19 18:40 36.984487 -118.927931 192 26404ft 298kts
25-May-19 18:41 36.900922 -118.937502 192 26983ft 305kts
25-May-19 18:42 36.815937 -118.947253 192 27532ft 311kts
25-May-19 18:43 36.728824 -118.957231 193 27910ft 322kts
25-May-19 18:44 36.636532 -118.967787 192 27939ft 345kts
25-May-19 18:45 36.538010 -118.978983 192 27941ft 369kts
25-May-19 18:46 36.432915 -118.990912 192 27936ft 390kts
25-May-19 18:47 36.322485 -119.003405 191 27937ft 409kts
25-May-19 18:48 36.207160 -119.016419 191 27935ft 426kts
25-May-19 18:49 36.086989 -119.029937 190 27936ft 442kts
25-May-19 18:50 35.962656 -119.043868 190 27935ft 456kts
25-May-19 18:51 35.837403 -119.057846 190 27938ft 468kts
25-May-19 18:52 35.707306 -119.072347 190 27939ft 478kts
25-May-19 18:53 35.573498 -119.087207 190 27880ft 488kts
25-May-19 18:54 35.441036 -119.111136 199 27839ft 487kts
25-May-19 18:55 35.309326 -119.152964 199 27831ft 492kts
25-May-19 18:56 35.176970 -119.194714 199 27832ft 494kts
25-May-19 18:57 35.043703 -119.236609 199 27833ft 496kts
25-May-19 18:58 34.910378 -119.278494 196 27432ft 506kts
25-May-19 18:59 34.780031 -119.314326 180 26750ft 439kts
25-May-19 19:00 34.672518 -119.260613 144 25007ft 434kts
25-May-19 19:01 34.572818 -119.174667 144 23390ft 436kts
25-May-19 19:02 34.481612 -119.094156 143 21046ft 399kts
25-May-19 19:03 34.393075 -119.016727 145 19541ft 387kts
25-May-19 19:05 34.310302 -118.943611 145 17137ft 352kts
25-May-19 19:06 34.235995 -118.875915 145 14757ft 323kts
25-May-19 19:07 34.168435 -118.813741 142 12868ft 288kts
25-May-19 19:08 34.108764 -118.749369 139 11187ft 286kts
25-May-19 19:09 34.051334 -118.687048 139 9506ft 271kts
25-May-19 19:10 34.025243 -118.605715 100 8832ft 276kts
25-May-19 19:11 34.015340 -118.510740 98 7033ft 281kts
25-May-19 19:12 34.008365 -118.431165 97 6348ft 211kts
25-May-19 19:13 34.002111 -118.362016 97 3958ft 206kts
25-May-19 19:14 33.990410 -118.297176 134 2070ft 190kts
25-May-19 19:15 33.948904 -118.307139 247 1172ft 172kts
25-May-19 19:16 33.939883 -118.357872 262 544ft 151kts
25-May-19 19:17 33.935502 -118.400684 261 115ft 54kts
25-May-19 19:18 33.937252 -118.409031 352 123ft 18kts
25-May-19 19:19 33.939308 -118.402783 83 117ft 34kts
25-May-19 19:20 33.940290 -118.394831 90 107ft 9kts
25-May-19 19:20 33.941168 -118.393839 344 105ft 0kts
25-May-19 19:22 33.941168 -118.393839 344 105ft 0kts
25-May-19 19:23 33.941168 -118.393839 344 105ft 0kts
25-May-19 19:23 33.941168 -118.393839 344 105ft 0kts

Navigation Log

Ident Type
Flight plan parsing failed, navigation log unavailable